sensor_id;sensor_type;location;lat;lon;timestamp;P1;durP1;ratioP1;P2;durP2;ratioP2
9422;SDS011;65863;49.506;10.400;2023-06-26T00:00:24;6.97;;;4.93;;
9422;SDS011;65863;49.506;10.400;2023-06-26T00:03:08;4.97;;;4.47;;
9422;SDS011;65863;49.506;10.400;2023-06-26T00:05:53;7.50;;;4.90;;
9422;SDS011;65863;49.506;10.400;2023-06-26T00:08:37;5.67;;;5.10;;
9422;SDS011;65863;49.506;10.400;2023-06-26T00:11:21;5.77;;;5.10;;
9422;SDS011;65863;49.506;10.400;2023-06-26T00:14:06;5.77;;;5.27;;
9422;SDS011;65863;49.506;10.400;2023-06-26T00:16:50;5.53;;;5.03;;
9422;SDS011;65863;49.506;10.400;2023-06-26T00:19:34;5.57;;;5.07;;
9422;SDS011;65863;49.506;10.400;2023-06-26T00:22:18;5.40;;;4.90;;
9422;SDS011;65863;49.506;10.400;2023-06-26T00:25:02;5.60;;;4.90;;
9422;SDS011;65863;49.506;10.400;2023-06-26T00:28:24;5.10;;;4.67;;
9422;SDS011;65863;49.506;10.400;2023-06-26T00:31:08;6.90;;;5.47;;
9422;SDS011;65863;49.506;10.400;2023-06-26T00:33:52;5.33;;;4.83;;
9422;SDS011;65863;49.506;10.400;2023-06-26T00:36:37;5.57;;;4.47;;
9422;SDS011;65863;49.506;10.400;2023-06-26T00:39:21;5.30;;;4.80;;
9422;SDS011;65863;49.506;10.400;2023-06-26T00:42:09;4.57;;;4.17;;
9422;SDS011;65863;49.506;10.400;2023-06-26T00:44:53;5.17;;;4.73;;
9422;SDS011;65863;49.506;10.400;2023-06-26T00:47:37;5.37;;;4.87;;
9422;SDS011;65863;49.506;10.400;2023-06-26T00:50:23;5.10;;;4.63;;
9422;SDS011;65863;49.506;10.400;2023-06-26T00:53:09;4.73;;;4.33;;
9422;SDS011;65863;49.506;10.400;2023-06-26T00:55:53;5.73;;;4.50;;
9422;SDS011;65863;49.506;10.400;2023-06-26T00:58:38;4.73;;;4.33;;
9422;SDS011;65863;49.506;10.400;2023-06-26T01:01:22;5.87;;;5.37;;
9422;SDS011;65863;49.506;10.400;2023-06-26T01:04:09;5.00;;;4.50;;
9422;SDS011;65863;49.506;10.400;2023-06-26T01:07:34;6.00;;;4.97;;
9422;SDS011;65863;49.506;10.400;2023-06-26T01:10:22;5.20;;;4.80;;
9422;SDS011;65863;49.506;10.400;2023-06-26T01:13:08;5.60;;;5.10;;
9422;SDS011;65863;49.506;10.400;2023-06-26T01:15:52;5.53;;;4.87;;
9422;SDS011;65863;49.506;10.400;2023-06-26T01:18:37;6.43;;;4.80;;
9422;SDS011;65863;49.506;10.400;2023-06-26T01:21:25;5.83;;;5.07;;
9422;SDS011;65863;49.506;10.400;2023-06-26T01:24:16;5.57;;;4.97;;
9422;SDS011;65863;49.506;10.400;2023-06-26T01:27:11;5.83;;;5.23;;
9422;SDS011;65863;49.506;10.400;2023-06-26T01:29:56;6.03;;;5.43;;
9422;SDS011;65863;49.506;10.400;2023-06-26T01:32:40;6.60;;;5.70;;
9422;SDS011;65863;49.506;10.400;2023-06-26T01:35:26;6.13;;;5.50;;
9422;SDS011;65863;49.506;10.400;2023-06-26T01:38:18;5.63;;;5.13;;
9422;SDS011;65863;49.506;10.400;2023-06-26T01:41:04;6.67;;;5.87;;
9422;SDS011;65863;49.506;10.400;2023-06-26T01:47:02;5.73;;;5.10;;
9422;SDS011;65863;49.506;10.400;2023-06-26T01:56:00;5.37;;;4.87;;
9422;SDS011;65863;49.506;10.400;2023-06-26T01:58:56;5.80;;;5.30;;
9422;SDS011;65863;49.506;10.400;2023-06-26T02:01:41;5.83;;;5.33;;
9422;SDS011;65863;49.506;10.400;2023-06-26T02:04:25;6.10;;;5.50;;
9422;SDS011;65863;49.506;10.400;2023-06-26T02:07:09;5.70;;;5.20;;
9422;SDS011;65863;49.506;10.400;2023-06-26T02:09:54;6.60;;;6.00;;
9422;SDS011;65863;49.506;10.400;2023-06-26T02:12:38;6.33;;;5.80;;
9422;SDS011;65863;49.506;10.400;2023-06-26T02:15:22;6.13;;;5.53;;
9422;SDS011;65863;49.506;10.400;2023-06-26T02:18:06;6.63;;;4.93;;
9422;SDS011;65863;49.506;10.400;2023-06-26T02:20:51;7.50;;;5.73;;
9422;SDS011;65863;49.506;10.400;2023-06-26T02:23:36;6.37;;;5.77;;
9422;SDS011;65863;49.506;10.400;2023-06-26T02:26:22;6.47;;;5.87;;
9422;SDS011;65863;49.506;10.400;2023-06-26T02:29:06;7.37;;;6.03;;
9422;SDS011;65863;49.506;10.400;2023-06-26T02:31:50;5.67;;;5.00;;
9422;SDS011;65863;49.506;10.400;2023-06-26T02:34:34;6.37;;;5.70;;
9422;SDS011;65863;49.506;10.400;2023-06-26T02:37:19;5.50;;;5.00;;
9422;SDS011;65863;49.506;10.400;2023-06-26T02:40:04;7.07;;;5.40;;
9422;SDS011;65863;49.506;10.400;2023-06-26T02:42:50;6.73;;;5.53;;
9422;SDS011;65863;49.506;10.400;2023-06-26T02:45:35;6.20;;;5.70;;
9422;SDS011;65863;49.506;10.400;2023-06-26T02:48:19;6.37;;;5.77;;
9422;SDS011;65863;49.506;10.400;2023-06-26T02:51:04;8.03;;;5.97;;
9422;SDS011;65863;49.506;10.400;2023-06-26T02:53:49;6.47;;;5.87;;
9422;SDS011;65863;49.506;10.400;2023-06-26T02:56:33;6.97;;;6.27;;
9422;SDS011;65863;49.506;10.400;2023-06-26T02:59:18;6.30;;;5.70;;
9422;SDS011;65863;49.506;10.400;2023-06-26T03:02:02;6.20;;;5.60;;
9422;SDS011;65863;49.506;10.400;2023-06-26T03:04:51;7.00;;;6.10;;
9422;SDS011;65863;49.506;10.400;2023-06-26T03:07:36;8.43;;;5.93;;
9422;SDS011;65863;49.506;10.400;2023-06-26T03:10:20;7.00;;;6.30;;
9422;SDS011;65863;49.506;10.400;2023-06-26T03:13:42;6.37;;;5.77;;
9422;SDS011;65863;49.506;10.400;2023-06-26T03:16:32;6.63;;;6.00;;
9422;SDS011;65863;49.506;10.400;2023-06-26T03:19:16;7.17;;;5.97;;
9422;SDS011;65863;49.506;10.400;2023-06-26T03:22:19;6.90;;;6.00;;
9422;SDS011;65863;49.506;10.400;2023-06-26T03:25:04;7.13;;;5.40;;
9422;SDS011;65863;49.506;10.400;2023-06-26T03:27:49;7.77;;;6.53;;
9422;SDS011;65863;49.506;10.400;2023-06-26T03:30:36;6.17;;;5.67;;
9422;SDS011;65863;49.506;10.400;2023-06-26T03:33:20;6.40;;;5.73;;
9422;SDS011;65863;49.506;10.400;2023-06-26T03:36:04;7.37;;;5.53;;
9422;SDS011;65863;49.506;10.400;2023-06-26T03:38:49;6.90;;;5.73;;
9422;SDS011;65863;49.506;10.400;2023-06-26T03:41:33;8.37;;;5.93;;
9422;SDS011;65863;49.506;10.400;2023-06-26T03:44:17;6.40;;;5.80;;
9422;SDS011;65863;49.506;10.400;2023-06-26T03:47:05;9.73;;;5.83;;
9422;SDS011;65863;49.506;10.400;2023-06-26T03:49:49;6.17;;;5.53;;
9422;SDS011;65863;49.506;10.400;2023-06-26T03:52:34;7.13;;;5.83;;
9422;SDS011;65863;49.506;10.400;2023-06-26T03:55:18;9.00;;;6.23;;
9422;SDS011;65863;49.506;10.400;2023-06-26T03:58:03;6.27;;;5.67;;
9422;SDS011;65863;49.506;10.400;2023-06-26T04:00:47;6.50;;;5.70;;
9422;SDS011;65863;49.506;10.400;2023-06-26T04:03:33;6.47;;;5.60;;
9422;SDS011;65863;49.506;10.400;2023-06-26T04:06:38;6.30;;;5.70;;
9422;SDS011;65863;49.506;10.400;2023-06-26T04:09:23;7.87;;;6.10;;
9422;SDS011;65863;49.506;10.400;2023-06-26T04:12:07;6.73;;;6.13;;
9422;SDS011;65863;49.506;10.400;2023-06-26T04:14:51;6.53;;;5.67;;
9422;SDS011;65863;49.506;10.400;2023-06-26T04:21:23;5.97;;;5.37;;
9422;SDS011;65863;49.506;10.400;2023-06-26T04:24:10;6.10;;;5.53;;
9422;SDS011;65863;49.506;10.400;2023-06-26T04:26:54;6.30;;;5.70;;
9422;SDS011;65863;49.506;10.400;2023-06-26T04:29:42;6.67;;;5.70;;
9422;SDS011;65863;49.506;10.400;2023-06-26T04:32:29;5.97;;;5.40;;
9422;SDS011;65863;49.506;10.400;2023-06-26T04:35:13;6.17;;;5.57;;
9422;SDS011;65863;49.506;10.400;2023-06-26T04:37:56;7.07;;;6.37;;
9422;SDS011;65863;49.506;10.400;2023-06-26T04:40:40;9.87;;;5.53;;
9422;SDS011;65863;49.506;10.400;2023-06-26T04:43:25;8.53;;;5.50;;
9422;SDS011;65863;49.506;10.400;2023-06-26T04:46:09;6.47;;;5.83;;
9422;SDS011;65863;49.506;10.400;2023-06-26T04:48:53;5.93;;;5.37;;
9422;SDS011;65863;49.506;10.400;2023-06-26T04:51:38;6.67;;;5.23;;
9422;SDS011;65863;49.506;10.400;2023-06-26T04:54:24;6.27;;;5.50;;
9422;SDS011;65863;49.506;10.400;2023-06-26T04:57:07;6.27;;;5.77;;
9422;SDS011;65863;49.506;10.400;2023-06-26T04:59:52;5.80;;;5.30;;
9422;SDS011;65863;49.506;10.400;2023-06-26T05:02:36;5.33;;;4.90;;
9422;SDS011;65863;49.506;10.400;2023-06-26T05:05:20;5.90;;;5.30;;
9422;SDS011;65863;49.506;10.400;2023-06-26T05:12:08;6.07;;;5.47;;
9422;SDS011;65863;49.506;10.400;2023-06-26T05:14:53;6.00;;;5.10;;
9422;SDS011;65863;49.506;10.400;2023-06-26T05:17:37;5.10;;;4.60;;
9422;SDS011;65863;49.506;10.400;2023-06-26T05:24:09;6.03;;;5.43;;
9422;SDS011;65863;49.506;10.400;2023-06-26T05:26:56;8.70;;;4.80;;
9422;SDS011;65863;49.506;10.400;2023-06-26T05:29:40;5.67;;;5.13;;
9422;SDS011;65863;49.506;10.400;2023-06-26T05:32:25;5.80;;;5.30;;
9422;SDS011;65863;49.506;10.400;2023-06-26T05:38:58;5.13;;;4.70;;
9422;SDS011;65863;49.506;10.400;2023-06-26T05:41:45;7.03;;;5.07;;
9422;SDS011;65863;49.506;10.400;2023-06-26T05:44:30;5.80;;;5.30;;
9422;SDS011;65863;49.506;10.400;2023-06-26T05:47:14;5.60;;;4.68;;
9422;SDS011;65863;49.506;10.400;2023-06-26T05:50:07;5.65;;;5.15;;
9422;SDS011;65863;49.506;10.400;2023-06-26T05:52:53;7.38;;;5.05;;
9422;SDS011;65863;49.506;10.400;2023-06-26T05:55:37;5.30;;;4.80;;
9422;SDS011;65863;49.506;10.400;2023-06-26T05:58:21;6.47;;;4.95;;
9422;SDS011;65863;49.506;10.400;2023-06-26T06:01:10;5.60;;;5.10;;
9422;SDS011;65863;49.506;10.400;2023-06-26T06:03:54;8.85;;;5.10;;
9422;SDS011;65863;49.506;10.400;2023-06-26T06:06:38;5.25;;;4.78;;
9422;SDS011;65863;49.506;10.400;2023-06-26T06:09:22;5.47;;;4.82;;
9422;SDS011;65863;49.506;10.400;2023-06-26T06:12:06;5.53;;;4.95;;
9422;SDS011;65863;49.506;10.400;2023-06-26T06:14:51;5.13;;;4.63;;
9422;SDS011;65863;49.506;10.400;2023-06-26T06:17:36;5.30;;;4.90;;
9422;SDS011;65863;49.506;10.400;2023-06-26T06:20:20;5.55;;;5.05;;
9422;SDS011;65863;49.506;10.400;2023-06-26T06:23:05;5.25;;;4.78;;
9422;SDS011;65863;49.506;10.400;2023-06-26T06:25:49;5.03;;;4.47;;
9422;SDS011;65863;49.506;10.400;2023-06-26T06:28:33;5.28;;;4.78;;
9422;SDS011;65863;49.506;10.400;2023-06-26T06:31:17;5.40;;;4.90;;
9422;SDS011;65863;49.506;10.400;2023-06-26T06:34:01;6.47;;;4.80;;
9422;SDS011;65863;49.506;10.400;2023-06-26T06:36:46;6.32;;;4.97;;
9422;SDS011;65863;49.506;10.400;2023-06-26T06:39:31;5.38;;;4.97;;
9422;SDS011;65863;49.506;10.400;2023-06-26T06:46:01;7.70;;;4.75;;
9422;SDS011;65863;49.506;10.400;2023-06-26T06:48:47;7.10;;;4.63;;
9422;SDS011;65863;49.506;10.400;2023-06-26T06:51:31;5.07;;;4.68;;
9422;SDS011;65863;49.506;10.400;2023-06-26T06:54:16;6.22;;;5.35;;
9422;SDS011;65863;49.506;10.400;2023-06-26T06:57:01;4.95;;;4.55;;
9422;SDS011;65863;49.506;10.400;2023-06-26T06:59:46;6.32;;;4.93;;
9422;SDS011;65863;49.506;10.400;2023-06-26T07:02:34;10.00;;;5.25;;
9422;SDS011;65863;49.506;10.400;2023-06-26T07:06:07;4.97;;;4.57;;
9422;SDS011;65863;49.506;10.400;2023-06-26T07:08:45;5.38;;;4.95;;
9422;SDS011;65863;49.506;10.400;2023-06-26T07:11:29;10.50;;;5.03;;
9422;SDS011;65863;49.506;10.400;2023-06-26T07:14:13;5.93;;;5.30;;
9422;SDS011;65863;49.506;10.400;2023-06-26T07:16:58;6.88;;;4.80;;
9422;SDS011;65863;49.506;10.400;2023-06-26T07:19:42;5.30;;;4.80;;
9422;SDS011;65863;49.506;10.400;2023-06-26T07:22:26;6.10;;;5.55;;
9422;SDS011;65863;49.506;10.400;2023-06-26T07:25:11;5.55;;;5.05;;
9422;SDS011;65863;49.506;10.400;2023-06-26T07:27:55;5.25;;;4.65;;
9422;SDS011;65863;49.506;10.400;2023-06-26T07:31:24;5.75;;;5.22;;
9422;SDS011;65863;49.506;10.400;2023-06-26T07:34:00;7.65;;;4.88;;
9422;SDS011;65863;49.506;10.400;2023-06-26T07:36:44;7.00;;;5.13;;
9422;SDS011;65863;49.506;10.400;2023-06-26T07:39:31;6.50;;;5.15;;
9422;SDS011;65863;49.506;10.400;2023-06-26T07:42:15;8.60;;;5.63;;
9422;SDS011;65863;49.506;10.400;2023-06-26T07:45:37;5.90;;;5.07;;
9422;SDS011;65863;49.506;10.400;2023-06-26T07:48:59;9.57;;;5.53;;
9422;SDS011;65863;49.506;10.400;2023-06-26T07:51:43;6.27;;;5.13;;
9422;SDS011;65863;49.506;10.400;2023-06-26T07:55:05;7.47;;;5.23;;
9422;SDS011;65863;49.506;10.400;2023-06-26T07:58:29;10.83;;;5.77;;
9422;SDS011;65863;49.506;10.400;2023-06-26T08:01:13;9.53;;;5.97;;
9422;SDS011;65863;49.506;10.400;2023-06-26T08:03:57;5.93;;;5.33;;
9422;SDS011;65863;49.506;10.400;2023-06-26T08:06:41;8.27;;;5.50;;
9422;SDS011;65863;49.506;10.400;2023-06-26T08:09:25;5.97;;;5.37;;
9422;SDS011;65863;49.506;10.400;2023-06-26T08:12:11;7.97;;;5.50;;
9422;SDS011;65863;49.506;10.400;2023-06-26T08:14:55;12.27;;;6.00;;
9422;SDS011;65863;49.506;10.400;2023-06-26T08:17:39;5.90;;;5.30;;
9422;SDS011;65863;49.506;10.400;2023-06-26T08:20:23;11.73;;;5.60;;
9422;SDS011;65863;49.506;10.400;2023-06-26T08:23:07;7.43;;;5.00;;
9422;SDS011;65863;49.506;10.400;2023-06-26T08:25:52;6.67;;;5.13;;
9422;SDS011;65863;49.506;10.400;2023-06-26T08:28:36;6.90;;;5.43;;
9422;SDS011;65863;49.506;10.400;2023-06-26T08:31:20;6.57;;;5.00;;
9422;SDS011;65863;49.506;10.400;2023-06-26T08:34:05;5.22;;;4.43;;
9422;SDS011;65863;49.506;10.400;2023-06-26T08:36:49;7.77;;;5.90;;
9422;SDS011;65863;49.506;10.400;2023-06-26T08:39:33;6.13;;;5.23;;
9422;SDS011;65863;49.506;10.400;2023-06-26T08:42:17;8.48;;;5.00;;
9422;SDS011;65863;49.506;10.400;2023-06-26T08:45:01;6.30;;;5.45;;
9422;SDS011;65863;49.506;10.400;2023-06-26T08:47:46;7.03;;;5.43;;
9422;SDS011;65863;49.506;10.400;2023-06-26T08:50:34;5.93;;;5.43;;
9422;SDS011;65863;49.506;10.400;2023-06-26T08:56:14;5.60;;;5.10;;
9422;SDS011;65863;49.506;10.400;2023-06-26T08:59:01;5.73;;;5.23;;
9422;SDS011;65863;49.506;10.400;2023-06-26T09:01:45;6.57;;;4.60;;
9422;SDS011;65863;49.506;10.400;2023-06-26T09:04:30;5.20;;;4.70;;
9422;SDS011;65863;49.506;10.400;2023-06-26T09:07:14;5.63;;;5.10;;
9422;SDS011;65863;49.506;10.400;2023-06-26T09:09:59;5.38;;;4.88;;
9422;SDS011;65863;49.506;10.400;2023-06-26T09:12:45;6.03;;;5.00;;
9422;SDS011;65863;49.506;10.400;2023-06-26T09:15:38;6.10;;;5.23;;
9422;SDS011;65863;49.506;10.400;2023-06-26T09:18:26;5.50;;;5.00;;
9422;SDS011;65863;49.506;10.400;2023-06-26T09:21:10;6.80;;;5.33;;
9422;SDS011;65863;49.506;10.400;2023-06-26T09:23:55;4.77;;;4.37;;
9422;SDS011;65863;49.506;10.400;2023-06-26T09:26:40;6.37;;;4.83;;
9422;SDS011;65863;49.506;10.400;2023-06-26T09:29:25;7.63;;;4.30;;
9422;SDS011;65863;49.506;10.400;2023-06-26T09:32:10;4.90;;;4.37;;
9422;SDS011;65863;49.506;10.400;2023-06-26T09:34:57;5.18;;;4.68;;
9422;SDS011;65863;49.506;10.400;2023-06-26T09:37:43;4.88;;;4.47;;
9422;SDS011;65863;49.506;10.400;2023-06-26T09:40:27;4.50;;;4.20;;
9422;SDS011;65863;49.506;10.400;2023-06-26T09:43:13;4.70;;;4.20;;
9422;SDS011;65863;49.506;10.400;2023-06-26T09:45:57;5.10;;;4.70;;
9422;SDS011;65863;49.506;10.400;2023-06-26T09:48:42;5.67;;;4.10;;
9422;SDS011;65863;49.506;10.400;2023-06-26T09:51:51;5.53;;;4.40;;
9422;SDS011;65863;49.506;10.400;2023-06-26T09:54:35;5.38;;;4.25;;
9422;SDS011;65863;49.506;10.400;2023-06-26T09:57:27;4.50;;;4.10;;
9422;SDS011;65863;49.506;10.400;2023-06-26T10:00:11;4.80;;;4.40;;
9422;SDS011;65863;49.506;10.400;2023-06-26T10:02:57;4.90;;;4.20;;
9422;SDS011;65863;49.506;10.400;2023-06-26T10:05:42;4.63;;;4.05;;
9422;SDS011;65863;49.506;10.400;2023-06-26T10:08:27;4.60;;;4.20;;
9422;SDS011;65863;49.506;10.400;2023-06-26T10:11:13;4.65;;;4.25;;
9422;SDS011;65863;49.506;10.400;2023-06-26T10:14:29;4.25;;;3.92;;
9422;SDS011;65863;49.506;10.400;2023-06-26T10:17:21;4.60;;;4.20;;
9422;SDS011;65863;49.506;10.400;2023-06-26T10:20:05;6.43;;;4.63;;
9422;SDS011;65863;49.506;10.400;2023-06-26T10:22:51;6.78;;;4.10;;
9422;SDS011;65863;49.506;10.400;2023-06-26T10:25:40;4.20;;;3.78;;
9422;SDS011;65863;49.506;10.400;2023-06-26T10:28:26;4.75;;;4.35;;
9422;SDS011;65863;49.506;10.400;2023-06-26T10:31:13;4.10;;;3.80;;
9422;SDS011;65863;49.506;10.400;2023-06-26T10:33:58;6.20;;;3.60;;
9422;SDS011;65863;49.506;10.400;2023-06-26T10:36:42;3.75;;;3.42;;
9422;SDS011;65863;49.506;10.400;2023-06-26T10:39:26;3.88;;;3.50;;
9422;SDS011;65863;49.506;10.400;2023-06-26T10:42:11;4.05;;;3.70;;
9422;SDS011;65863;49.506;10.400;2023-06-26T10:44:55;5.28;;;3.67;;
9422;SDS011;65863;49.506;10.400;2023-06-26T10:47:52;3.70;;;3.40;;
9422;SDS011;65863;49.506;10.400;2023-06-26T10:50:36;5.78;;;3.75;;
9422;SDS011;65863;49.506;10.400;2023-06-26T10:53:22;6.45;;;3.90;;
9422;SDS011;65863;49.506;10.400;2023-06-26T10:56:11;3.75;;;3.45;;
9422;SDS011;65863;49.506;10.400;2023-06-26T10:59:32;4.22;;;3.28;;
9422;SDS011;65863;49.506;10.400;2023-06-26T11:02:17;4.20;;;3.22;;
9422;SDS011;65863;49.506;10.400;2023-06-26T11:05:01;3.70;;;3.40;;
9422;SDS011;65863;49.506;10.400;2023-06-26T11:08:02;5.03;;;3.53;;
9422;SDS011;65863;49.506;10.400;2023-06-26T11:10:47;3.80;;;3.50;;
9422;SDS011;65863;49.506;10.400;2023-06-26T11:13:32;3.63;;;3.33;;
9422;SDS011;65863;49.506;10.400;2023-06-26T11:16:18;4.82;;;3.38;;
9422;SDS011;65863;49.506;10.400;2023-06-26T11:19:40;5.07;;;3.33;;
9422;SDS011;65863;49.506;10.400;2023-06-26T11:22:26;3.45;;;3.15;;
9422;SDS011;65863;49.506;10.400;2023-06-26T11:25:11;3.38;;;3.08;;
9422;SDS011;65863;49.506;10.400;2023-06-26T11:27:56;6.57;;;3.50;;
9422;SDS011;65863;49.506;10.400;2023-06-26T11:30:40;4.20;;;3.80;;
9422;SDS011;65863;49.506;10.400;2023-06-26T11:33:26;3.90;;;3.58;;
9422;SDS011;65863;49.506;10.400;2023-06-26T11:36:10;5.93;;;3.35;;
9422;SDS011;65863;49.506;10.400;2023-06-26T11:38:55;3.80;;;3.50;;
9422;SDS011;65863;49.506;10.400;2023-06-26T11:42:18;4.15;;;3.85;;
9422;SDS011;65863;49.506;10.400;2023-06-26T11:45:03;3.60;;;3.30;;
9422;SDS011;65863;49.506;10.400;2023-06-26T11:47:48;4.07;;;3.67;;
9422;SDS011;65863;49.506;10.400;2023-06-26T11:50:36;5.40;;;3.70;;
9422;SDS011;65863;49.506;10.400;2023-06-26T11:53:21;4.68;;;3.70;;
9422;SDS011;65863;49.506;10.400;2023-06-26T11:56:12;4.93;;;3.60;;
9422;SDS011;65863;49.506;10.400;2023-06-26T11:58:58;5.50;;;3.25;;
9422;SDS011;65863;49.506;10.400;2023-06-26T12:01:47;3.58;;;3.28;;
9422;SDS011;65863;49.506;10.400;2023-06-26T12:04:49;5.38;;;3.60;;
9422;SDS011;65863;49.506;10.400;2023-06-26T12:07:33;3.72;;;3.42;;
9422;SDS011;65863;49.506;10.400;2023-06-26T12:10:19;4.07;;;3.70;;
9422;SDS011;65863;49.506;10.400;2023-06-26T12:13:04;4.30;;;3.90;;
9422;SDS011;65863;49.506;10.400;2023-06-26T12:15:48;4.13;;;3.72;;
9422;SDS011;65863;49.506;10.400;2023-06-26T12:18:34;4.00;;;3.70;;
9422;SDS011;65863;49.506;10.400;2023-06-26T12:24:21;3.85;;;3.55;;
9422;SDS011;65863;49.506;10.400;2023-06-26T12:27:07;4.30;;;3.90;;
9422;SDS011;65863;49.506;10.400;2023-06-26T12:29:55;5.85;;;3.80;;
9422;SDS011;65863;49.506;10.400;2023-06-26T12:32:40;6.03;;;4.10;;
9422;SDS011;65863;49.506;10.400;2023-06-26T12:35:28;4.45;;;3.90;;
9422;SDS011;65863;49.506;10.400;2023-06-26T12:38:12;4.10;;;3.80;;
9422;SDS011;65863;49.506;10.400;2023-06-26T12:40:59;4.70;;;3.85;;
9422;SDS011;65863;49.506;10.400;2023-06-26T12:43:43;4.03;;;3.63;;
9422;SDS011;65863;49.506;10.400;2023-06-26T12:46:33;5.05;;;3.90;;
9422;SDS011;65863;49.506;10.400;2023-06-26T12:49:18;6.50;;;4.10;;
9422;SDS011;65863;49.506;10.400;2023-06-26T12:52:06;5.15;;;4.30;;
9422;SDS011;65863;49.506;10.400;2023-06-26T12:54:54;4.32;;;3.85;;
9422;SDS011;65863;49.506;10.400;2023-06-26T12:57:39;5.32;;;3.60;;
9422;SDS011;65863;49.506;10.400;2023-06-26T13:00:23;6.03;;;4.13;;
9422;SDS011;65863;49.506;10.400;2023-06-26T13:03:09;6.00;;;4.22;;
9422;SDS011;65863;49.506;10.400;2023-06-26T13:05:53;4.60;;;4.20;;
9422;SDS011;65863;49.506;10.400;2023-06-26T13:08:37;4.85;;;3.92;;
9422;SDS011;65863;49.506;10.400;2023-06-26T13:11:21;6.13;;;3.95;;
9422;SDS011;65863;49.506;10.400;2023-06-26T13:14:06;5.30;;;4.20;;
9422;SDS011;65863;49.506;10.400;2023-06-26T13:16:50;4.72;;;4.32;;
9422;SDS011;65863;49.506;10.400;2023-06-26T13:19:34;4.55;;;3.90;;
9422;SDS011;65863;49.506;10.400;2023-06-26T13:22:18;4.65;;;4.25;;
9422;SDS011;65863;49.506;10.400;2023-06-26T13:25:02;6.47;;;4.40;;
9422;SDS011;65863;49.506;10.400;2023-06-26T13:27:47;5.70;;;4.40;;
9422;SDS011;65863;49.506;10.400;2023-06-26T13:30:32;5.80;;;4.60;;
9422;SDS011;65863;49.506;10.400;2023-06-26T13:33:16;4.47;;;4.10;;
9422;SDS011;65863;49.506;10.400;2023-06-26T13:36:00;8.48;;;4.53;;
9422;SDS011;65863;49.506;10.400;2023-06-26T13:38:48;5.45;;;4.57;;
9422;SDS011;65863;49.506;10.400;2023-06-26T13:41:38;4.85;;;4.45;;
9422;SDS011;65863;49.506;10.400;2023-06-26T13:44:22;9.50;;;4.30;;
9422;SDS011;65863;49.506;10.400;2023-06-26T13:47:06;5.72;;;5.20;;
9422;SDS011;65863;49.506;10.400;2023-06-26T13:49:51;5.85;;;4.28;;
9422;SDS011;65863;49.506;10.400;2023-06-26T13:53:12;5.07;;;4.35;;
9422;SDS011;65863;49.506;10.400;2023-06-26T13:56:22;4.88;;;4.47;;
9422;SDS011;65863;49.506;10.400;2023-06-26T13:59:06;5.13;;;4.72;;
9422;SDS011;65863;49.506;10.400;2023-06-26T14:01:53;6.22;;;5.13;;
9422;SDS011;65863;49.506;10.400;2023-06-26T14:04:43;6.00;;;4.75;;
9422;SDS011;65863;49.506;10.400;2023-06-26T14:07:27;7.78;;;4.95;;
9422;SDS011;65863;49.506;10.400;2023-06-26T14:10:11;5.72;;;4.72;;
9422;SDS011;65863;49.506;10.400;2023-06-26T14:12:55;5.90;;;5.30;;
9422;SDS011;65863;49.506;10.400;2023-06-26T14:15:40;6.07;;;5.55;;
9422;SDS011;65863;49.506;10.400;2023-06-26T14:19:02;19.27;;;5.60;;
9422;SDS011;65863;49.506;10.400;2023-06-26T14:21:59;5.80;;;5.30;;
9422;SDS011;65863;49.506;10.400;2023-06-26T14:24:43;6.43;;;5.43;;
9422;SDS011;65863;49.506;10.400;2023-06-26T14:27:27;7.97;;;5.53;;
9422;SDS011;65863;49.506;10.400;2023-06-26T14:30:11;5.30;;;4.80;;
9422;SDS011;65863;49.506;10.400;2023-06-26T14:32:55;9.63;;;5.43;;
9422;SDS011;65863;49.506;10.400;2023-06-26T14:35:39;6.03;;;5.13;;
9422;SDS011;65863;49.506;10.400;2023-06-26T14:38:23;5.80;;;5.20;;
9422;SDS011;65863;49.506;10.400;2023-06-26T14:41:07;5.53;;;5.03;;
9422;SDS011;65863;49.506;10.400;2023-06-26T14:43:51;5.95;;;5.18;;
9422;SDS011;65863;49.506;10.400;2023-06-26T14:46:36;6.00;;;4.93;;
9422;SDS011;65863;49.506;10.400;2023-06-26T14:49:20;5.67;;;4.90;;
9422;SDS011;65863;49.506;10.400;2023-06-26T14:52:04;5.83;;;4.73;;
9422;SDS011;65863;49.506;10.400;2023-06-26T14:54:48;10.97;;;4.97;;
9422;SDS011;65863;49.506;10.400;2023-06-26T14:57:33;5.03;;;4.40;;
9422;SDS011;65863;49.506;10.400;2023-06-26T15:00:18;7.00;;;4.90;;
9422;SDS011;65863;49.506;10.400;2023-06-26T15:03:03;6.47;;;5.03;;
9422;SDS011;65863;49.506;10.400;2023-06-26T15:05:47;5.70;;;5.07;;
9422;SDS011;65863;49.506;10.400;2023-06-26T15:08:32;5.67;;;5.10;;
9422;SDS011;65863;49.506;10.400;2023-06-26T15:11:16;5.33;;;4.73;;
9422;SDS011;65863;49.506;10.400;2023-06-26T15:14:01;6.07;;;4.47;;
9422;SDS011;65863;49.506;10.400;2023-06-26T15:16:45;11.43;;;4.93;;
9422;SDS011;65863;49.506;10.400;2023-06-26T15:19:30;5.20;;;4.70;;
9422;SDS011;65863;49.506;10.400;2023-06-26T15:22:17;8.87;;;4.73;;
9422;SDS011;65863;49.506;10.400;2023-06-26T15:25:01;7.53;;;4.67;;
9422;SDS011;65863;49.506;10.400;2023-06-26T15:27:46;6.03;;;5.30;;
9422;SDS011;65863;49.506;10.400;2023-06-26T15:30:30;6.57;;;5.37;;
9422;SDS011;65863;49.506;10.400;2023-06-26T15:33:14;6.70;;;5.00;;
9422;SDS011;65863;49.506;10.400;2023-06-26T15:35:58;9.77;;;5.60;;
9422;SDS011;65863;49.506;10.400;2023-06-26T15:38:42;7.50;;;5.07;;
9422;SDS011;65863;49.506;10.400;2023-06-26T15:41:26;5.93;;;4.60;;
9422;SDS011;65863;49.506;10.400;2023-06-26T15:44:10;9.50;;;4.73;;
9422;SDS011;65863;49.506;10.400;2023-06-26T15:46:55;6.13;;;4.97;;
9422;SDS011;65863;49.506;10.400;2023-06-26T15:50:17;6.47;;;4.93;;
9422;SDS011;65863;49.506;10.400;2023-06-26T15:53:08;6.73;;;4.53;;
9422;SDS011;65863;49.506;10.400;2023-06-26T15:55:52;5.20;;;4.63;;
9422;SDS011;65863;49.506;10.400;2023-06-26T15:58:37;9.33;;;4.57;;
9422;SDS011;65863;49.506;10.400;2023-06-26T16:01:29;7.57;;;4.80;;
9422;SDS011;65863;49.506;10.400;2023-06-26T16:04:13;7.37;;;4.50;;
9422;SDS011;65863;49.506;10.400;2023-06-26T16:07:00;5.50;;;4.50;;
9422;SDS011;65863;49.506;10.400;2023-06-26T16:09:45;4.70;;;4.17;;
9422;SDS011;65863;49.506;10.400;2023-06-26T16:12:28;5.20;;;4.70;;
9422;SDS011;65863;49.506;10.400;2023-06-26T16:15:12;5.30;;;4.60;;
9422;SDS011;65863;49.506;10.400;2023-06-26T16:17:56;6.07;;;3.87;;
9422;SDS011;65863;49.506;10.400;2023-06-26T16:20:40;5.43;;;3.80;;
9422;SDS011;65863;49.506;10.400;2023-06-26T16:23:24;7.63;;;4.90;;
9422;SDS011;65863;49.506;10.400;2023-06-26T16:26:08;8.23;;;4.53;;
9422;SDS011;65863;49.506;10.400;2023-06-26T16:29:30;4.63;;;3.70;;
9422;SDS011;65863;49.506;10.400;2023-06-26T16:32:18;3.77;;;3.47;;
9422;SDS011;65863;49.506;10.400;2023-06-26T16:35:02;5.10;;;3.80;;
9422;SDS011;65863;49.506;10.400;2023-06-26T16:37:47;4.30;;;3.90;;
9422;SDS011;65863;49.506;10.400;2023-06-26T16:40:31;6.33;;;4.60;;
9422;SDS011;65863;49.506;10.400;2023-06-26T16:43:15;6.43;;;4.70;;
9422;SDS011;65863;49.506;10.400;2023-06-26T16:46:00;8.40;;;5.20;;
9422;SDS011;65863;49.506;10.400;2023-06-26T16:48:45;6.80;;;5.20;;
9422;SDS011;65863;49.506;10.400;2023-06-26T16:51:30;6.57;;;4.87;;
9422;SDS011;65863;49.506;10.400;2023-06-26T16:54:14;6.23;;;4.97;;
9422;SDS011;65863;49.506;10.400;2023-06-26T16:56:58;8.07;;;5.17;;
9422;SDS011;65863;49.506;10.400;2023-06-26T16:59:43;9.27;;;4.73;;
9422;SDS011;65863;49.506;10.400;2023-06-26T17:02:27;6.43;;;5.00;;
9422;SDS011;65863;49.506;10.400;2023-06-26T17:05:13;5.83;;;4.90;;
9422;SDS011;65863;49.506;10.400;2023-06-26T17:07:58;5.43;;;4.57;;
9422;SDS011;65863;49.506;10.400;2023-06-26T17:10:42;6.77;;;4.70;;
9422;SDS011;65863;49.506;10.400;2023-06-26T17:13:27;6.93;;;4.73;;
9422;SDS011;65863;49.506;10.400;2023-06-26T17:16:11;6.47;;;4.67;;
9422;SDS011;65863;49.506;10.400;2023-06-26T17:18:55;9.40;;;4.73;;
9422;SDS011;65863;49.506;10.400;2023-06-26T17:21:39;6.97;;;4.30;;